Terminal Aerodrome Forecast
Issued by NWS

Home | Current Version | Previous Version | Text Only | Print | Product List | Glossary On
Versions: 1 2 3 4 5 6 7 8 9 10 11 12 13 14 15 16 17 18 19 20 21 22 23 24 25 26 27 28 29 30 31 32 33 34
000
FTUS42 KGSP 020528
TAFHKY
TAF
KHKY 020528Z 0206/0306 27005KT P6SM SCT100 OVC250
      TEMPO 0206/0208 -SHRA OVC100
     FM020900 27004KT P6SM OVC070
     FM021600 24008G17KT P6SM BKN070 PROB30 0218/0222 4SM TSRA
      BKN040CB
     FM030300 23005KT P6SM BKN070=

USA.gov is the U.S. government's official web portal to all federal, state and local government web resources and services.